sensor_id;sensor_type;location;lat;lon;timestamp;pressure;altitude;pressure_sealevel;temperature;humidity
26438;BME280;14133;48.430;9.888;2022-08-25T02:42:32;95148.81;;;19.80;61.68
26438;BME280;14133;48.430;9.888;2022-08-25T02:52:14;95129.84;;;19.72;61.56
26438;BME280;14133;48.430;9.888;2022-08-25T03:02:04;95153.09;;;19.88;61.41
26438;BME280;14133;48.430;9.888;2022-08-25T03:11:45;95139.13;;;19.82;61.13
26438;BME280;14133;48.430;9.888;2022-08-25T03:21:27;95122.13;;;19.67;60.99
26438;BME280;14133;48.430;9.888;2022-08-25T03:31:08;95136.81;;;19.77;60.87
26438;BME280;14133;48.430;9.888;2022-08-25T03:40:52;95100.47;;;19.49;61.01
26438;BME280;14133;48.430;9.888;2022-08-25T04:10:58;95193.69;;;19.99;60.86
26438;BME280;14133;48.430;9.888;2022-08-25T04:20:42;95141.44;;;19.66;60.87
26438;BME280;14133;48.430;9.888;2022-08-25T04:30:23;95157.69;;;19.76;60.65
26438;BME280;14133;48.430;9.888;2022-08-25T04:40:04;95163.09;;;19.76;60.58
26438;BME280;14133;48.430;9.888;2022-08-25T04:49:44;95153.81;;;19.63;60.35
26438;BME280;14133;48.430;9.888;2022-08-25T04:59:26;95191.38;;;19.90;60.40
26438;BME280;14133;48.430;9.888;2022-08-25T05:09:06;95166.56;;;19.70;60.44
26438;BME280;14133;48.430;9.888;2022-08-25T05:18:47;95180.13;;;19.84;60.51
26438;BME280;14133;48.430;9.888;2022-08-25T05:28:28;95150.72;;;19.65;60.60
26438;BME280;14133;48.430;9.888;2022-08-25T05:38:14;95151.13;;;19.70;61.04
26438;BME280;14133;48.430;9.888;2022-08-25T05:47:55;95134.50;;;19.65;60.85
26438;BME280;14133;48.430;9.888;2022-08-25T05:57:37;95139.88;;;19.61;61.29
26438;BME280;14133;48.430;9.888;2022-08-25T06:07:18;95159.25;;;19.70;61.66
26438;BME280;14133;48.430;9.888;2022-08-25T06:16:58;95094.28;;;19.38;61.71
26438;BME280;14133;48.430;9.888;2022-08-25T06:26:42;95087.69;;;19.39;61.36
26438;BME280;14133;48.430;9.888;2022-08-25T06:36:26;95137.63;;;19.88;60.97
26438;BME280;14133;48.430;9.888;2022-08-25T06:46:15;95138.00;;;19.87;60.76
26438;BME280;14133;48.430;9.888;2022-08-25T06:55:56;95115.16;;;19.70;60.71
26438;BME280;14133;48.430;9.888;2022-08-25T07:05:37;95113.22;;;19.67;60.73
26438;BME280;14133;48.430;9.888;2022-08-25T07:15:18;95076.88;;;19.46;60.27
26438;BME280;14133;48.430;9.888;2022-08-25T07:25:07;95155.00;;;19.98;60.13
26438;BME280;14133;48.430;9.888;2022-08-25T07:34:50;95077.69;;;19.50;60.56
26438;BME280;14133;48.430;9.888;2022-08-25T07:44:50;95100.47;;;19.71;60.83
26438;BME280;14133;48.430;9.888;2022-08-25T07:54:30;95079.59;;;19.68;60.46
26438;BME280;14133;48.430;9.888;2022-08-25T08:04:11;95073.78;;;19.66;60.72
26438;BME280;14133;48.430;9.888;2022-08-25T08:13:53;95105.91;;;19.93;60.68
26438;BME280;14133;48.430;9.888;2022-08-25T08:23:33;95100.13;;;19.98;60.77
26438;BME280;14133;48.430;9.888;2022-08-25T08:43:08;95138.75;;;20.42;61.21
26438;BME280;14133;48.430;9.888;2022-08-25T08:53:06;95132.53;;;20.56;61.22
26438;BME280;14133;48.430;9.888;2022-08-25T09:03:05;95048.28;;;20.17;61.20
26438;BME280;14133;48.430;9.888;2022-08-25T09:22:53;95115.06;;;20.86;62.27
26438;BME280;14133;48.430;9.888;2022-08-25T09:32:42;95057.81;;;20.69;62.35
26438;BME280;14133;48.430;9.888;2022-08-25T09:42:51;95033.06;;;20.56;62.06
26438;BME280;14133;48.430;9.888;2022-08-25T09:52:53;95024.16;;;20.63;62.54
26438;BME280;14133;48.430;9.888;2022-08-25T16:22:46;94813.09;;;21.63;61.09
26438;BME280;14133;48.430;9.888;2022-08-25T16:32:28;94806.13;;;21.58;61.06
26438;BME280;14133;48.430;9.888;2022-08-25T16:42:10;94806.53;;;21.61;61.00
26438;BME280;14133;48.430;9.888;2022-08-25T16:51:54;94799.56;;;21.56;61.13
26438;BME280;14133;48.430;9.888;2022-08-25T17:01:37;94823.50;;;21.68;61.09
26438;BME280;14133;48.430;9.888;2022-08-25T17:11:23;94801.59;;;21.48;61.25
26438;BME280;14133;48.430;9.888;2022-08-25T17:40:58;94793.63;;;21.34;61.38
26438;BME280;14133;48.430;9.888;2022-08-25T17:50:40;94849.53;;;21.58;61.59
26438;BME280;14133;48.430;9.888;2022-08-25T18:00:21;94876.56;;;21.73;61.85
26438;BME280;14133;48.430;9.888;2022-08-25T18:10:03;94878.88;;;21.74;61.90
26438;BME280;14133;48.430;9.888;2022-08-25T18:19:44;94887.78;;;21.75;61.84
26438;BME280;14133;48.430;9.888;2022-08-25T18:29:26;94872.44;;;21.61;62.08
26438;BME280;14133;48.430;9.888;2022-08-25T18:39:07;94875.84;;;21.65;62.11
26438;BME280;14133;48.430;9.888;2022-08-25T18:49:14;94893.31;;;21.64;62.12
26438;BME280;14133;48.430;9.888;2022-08-25T18:59:06;94839.81;;;21.26;62.50
26438;BME280;14133;48.430;9.888;2022-08-25T19:18:53;94836.06;;;21.13;62.90
26438;BME280;14133;48.430;9.888;2022-08-25T20:38:06;94847.44;;;20.97;64.08
26438;BME280;14133;48.430;9.888;2022-08-25T21:07:38;94869.47;;;20.99;63.92
26438;BME280;14133;48.430;9.888;2022-08-25T21:58:42;94884.22;;;20.94;63.12
26438;BME280;14133;48.430;9.888;2022-08-25T22:08:23;94892.69;;;21.04;63.55
26438;BME280;14133;48.430;9.888;2022-08-25T22:27:55;94895.03;;;20.98;62.99
26438;BME280;14133;48.430;9.888;2022-08-25T22:37:36;94897.75;;;21.02;63.02
26438;BME280;14133;48.430;9.888;2022-08-25T22:47:16;94900.44;;;20.98;62.73
26438;BME280;14133;48.430;9.888;2022-08-25T22:56:58;94886.56;;;20.92;62.74
26438;BME280;14133;48.430;9.888;2022-08-25T23:06:39;94890.78;;;21.01;62.48
26438;BME280;14133;48.430;9.888;2022-08-25T23:16:20;94878.78;;;20.98;62.66
26438;BME280;14133;48.430;9.888;2022-08-25T23:26:01;94894.56;;;21.10;62.55
26438;BME280;14133;48.430;9.888;2022-08-25T23:35:41;94894.97;;;21.09;62.53
26438;BME280;14133;48.430;9.888;2022-08-25T23:45:22;94882.19;;;21.06;62.31
26438;BME280;14133;48.430;9.888;2022-08-25T23:55:03;94881.84;;;21.04;62.29
